MDCY

Samaná El Catey International Airport

Airport
ICAO code
MDCY
IATA Code
AZS
Summary
ICAO Region
CARSAM
ICAO Territory
Location

El Catey, Dominican Republic

Serving
Samaná
Elevation
12 ft
Coordinates
19° 16' 4" N , 69° 43' 50" W
KCC
Am
Airport WX
Tropical Revolving Storm
Metar
Observation
MDCY 121500Z 09005KT 8000 VCSH FEW016CB SCT016 26/24 Q1017 RERA CB/NE/W/NW/N
Station
EL CATEY INTL
Date/Time
2022-08-12 15:00:00
Wind direction
90°
Wind speed
05 kts
Lowest cloud amount
few clouds
Temperature
26°C
Dew point
24°C
Humidity
88%
QNH
1017 hPa
Weather condition
n/a

Samaná El Catey International Airport, also called Aeropuerto Internacional Presidente Juan Bosch (AISA), is an international airport that opened on 6 November 2006, serving the province of Samaná in the Dominican Republic.

Climatology

Tropical monsoon climate (Köppen climate classification Am)

Runways

Designator Length Width Surface Rops
7/25 3000 45 ASPHALT No/No

Airport map

Aerial View

SKYbrary Partners:

Safety knowledge contributed by: